Flight Briefing for CPX407

Departure Arrival
Chicago/Rockford International Airport (KRFD)
Click to view FAA NOTAMS
Nashville International Airport (KBNA)
Click to view FAA NOTAMS
Departure Time Arrival Time
N/A N/A
Aircraft Distance
B757-200SF 381nm
Departure METAR Arrival METAR
KRFD 230559Z 21005KT 10SM -RA FEW008 SCT020 OVC036 18/18 A2985 RMK AO2 LTG DSNT NE-SE TSE57 OCNL LTGICCC DSNT NE-SE CB DSNT NE-SE MOV NE P0000 T01830178 $ KBNA 230553Z 19008KT 10SM FEW200 25/13 A3009 RMK AO2 SLP180 T02500128 10300 20250 403330222 51003
Suggested Route
JOT GUIDO J73 PXV GUMMA RYYMN2


View recent IFR Routes data
Notes



Charts and Procedures

Charts for KRFD
No chart available
Charts for KBNA
No chart available

Windy.com Weather Map